createdAt,value
2023-01-31T05:47:36.899Z,1.10
2023-01-31T05:50:05.686Z,1.10
2023-01-31T05:52:33.635Z,1.20
2023-01-31T05:55:01.727Z,1.20
2023-01-31T05:57:29.622Z,1.30
2023-01-31T05:59:57.569Z,1.30
2023-01-31T06:02:25.551Z,1.30
2023-01-31T06:04:54.849Z,1.30
2023-01-31T06:07:23.628Z,1.30
2023-01-31T06:09:51.547Z,1.30
2023-01-31T06:12:19.608Z,1.30
2023-01-31T06:14:47.742Z,1.20
2023-01-31T06:17:15.817Z,1.20
2023-01-31T06:19:43.786Z,1.20
2023-01-31T06:22:13.074Z,1.20
2023-01-31T06:24:40.986Z,1.10
2023-01-31T06:27:08.908Z,1.10
2023-01-31T06:29:36.921Z,1.10
2023-01-31T06:32:05.273Z,1.00
2023-01-31T06:34:33.257Z,1.00
2023-01-31T06:37:01.117Z,1.00
2023-01-31T06:39:30.638Z,1.00
2023-01-31T06:41:58.562Z,1.00
2023-01-31T06:44:26.727Z,1.00
2023-01-31T06:46:56.015Z,1.00
2023-01-31T06:49:24.013Z,1.00
2023-01-31T06:51:51.970Z,1.00
2023-01-31T06:54:19.892Z,1.00
2023-01-31T06:56:49.334Z,1.00
2023-01-31T06:59:17.259Z,1.00
2023-01-31T07:01:45.318Z,1.00
2023-01-31T07:04:13.291Z,0.90
2023-01-31T07:06:41.190Z,0.90
2023-01-31T07:09:09.190Z,0.90
2023-01-31T07:11:38.673Z,0.80
2023-01-31T07:14:07.967Z,0.90
2023-01-31T07:16:38.120Z,0.80
2023-01-31T07:19:06.196Z,0.90
2023-01-31T07:21:35.979Z,0.90
2023-01-31T07:24:04.916Z,0.90
2023-01-31T07:26:33.408Z,0.90
2023-01-31T07:29:01.514Z,1.00
2023-01-31T07:31:31.196Z,1.00
2023-01-31T07:33:59.329Z,1.10
2023-01-31T07:36:28.128Z,1.10
2023-01-31T07:38:57.291Z,1.10
2023-01-31T07:41:26.037Z,1.10
2023-01-31T07:43:54.318Z,1.10
2023-01-31T15:02:52.491Z,3.40
2023-01-31T15:05:26.544Z,3.30
2023-01-31T15:08:08.409Z,3.20
2023-01-31T15:11:02.007Z,3.20
2023-01-31T15:13:51.630Z,3.10
2023-01-31T15:16:23.230Z,3.10
2023-01-31T15:18:56.570Z,3.10
2023-01-31T15:21:28.732Z,3.10
2023-01-31T15:23:58.391Z,3.10
2023-01-31T15:26:30.420Z,3.10
2023-01-31T15:28:59.115Z,3.10
2023-01-31T15:31:33.938Z,3.10
2023-01-31T15:34:08.172Z,3.10
2023-01-31T15:36:43.200Z,3.10
2023-01-31T15:39:22.478Z,3.00
2023-01-31T15:41:50.694Z,3.00
2023-01-31T15:44:21.447Z,3.00
2023-01-31T15:46:50.684Z,3.00
2023-01-31T15:49:40.527Z,3.00
2023-01-31T15:52:16.109Z,3.00
2023-01-31T15:54:54.487Z,3.00
2023-01-31T15:57:24.548Z,3.00
2023-01-31T15:59:52.557Z,3.00
2023-01-31T16:02:26.406Z,3.00
2023-01-31T16:04:56.122Z,3.00
2023-01-31T16:07:28.519Z,3.00
2023-01-31T16:09:58.585Z,3.00
2023-01-31T16:12:28.172Z,2.90
2023-01-31T16:14:59.341Z,2.90
2023-01-31T16:17:28.445Z,2.90
2023-01-31T16:19:58.259Z,2.90
2023-01-31T16:22:29.073Z,2.90
2023-01-31T16:24:59.056Z,2.90
2023-01-31T16:27:30.075Z,2.90
2023-01-31T16:29:59.556Z,2.90
2023-01-31T16:32:30.564Z,3.00
2023-01-31T16:35:02.383Z,3.00
2023-01-31T16:37:36.458Z,3.00
2023-01-31T16:40:08.457Z,3.00
2023-01-31T16:42:39.186Z,3.00
2023-01-31T16:45:29.587Z,3.00
2023-01-31T16:48:15.887Z,2.90
2023-01-31T16:50:45.235Z,2.90
2023-01-31T16:53:19.344Z,2.90
2023-01-31T16:55:47.366Z,2.90
2023-01-31T16:58:45.412Z,2.90
2023-01-31T17:01:15.301Z,2.90
2023-01-31T17:03:43.875Z,3.00
2023-01-31T17:06:22.237Z,3.00
2023-01-31T17:08:50.365Z,3.00
2023-01-31T17:11:34.156Z,3.00
2023-01-31T17:14:07.498Z,3.00
2023-01-31T17:16:35.412Z,3.00
2023-01-31T17:19:03.330Z,3.00
2023-01-31T17:21:38.394Z,3.00
2023-01-31T17:24:06.794Z,3.10
2023-01-31T17:26:34.839Z,3.10
2023-01-31T17:29:02.836Z,3.00
2023-01-31T17:31:31.521Z,3.10
2023-01-31T17:33:59.744Z,3.00
2023-01-31T17:36:27.832Z,3.10
2023-01-31T17:38:57.208Z,3.10
2023-01-31T17:41:25.662Z,3.10
2023-01-31T17:43:53.581Z,3.00
2023-01-31T17:46:21.836Z,3.10
2023-01-31T17:48:49.809Z,3.10
2023-01-31T17:51:17.804Z,3.10
2023-01-31T17:53:50.240Z,3.10
2023-01-31T17:56:20.399Z,3.10
2023-01-31T17:58:49.376Z,3.10
2023-01-31T18:01:17.422Z,3.10
2023-01-31T18:03:46.366Z,3.00
2023-01-31T18:06:14.469Z,3.10
2023-01-31T18:08:42.470Z,3.00
2023-01-31T18:11:12.068Z,3.00
2023-01-31T18:13:41.790Z,3.00
2023-01-31T18:16:11.256Z,3.00
2023-01-31T18:18:41.628Z,3.00
2023-01-31T18:21:10.634Z,3.00
2023-01-31T18:23:38.904Z,3.00
2023-01-31T18:26:07.931Z,3.00
2023-01-31T18:28:36.553Z,3.10
2023-01-31T18:31:10.490Z,3.00
2023-01-31T18:33:39.060Z,3.10
2023-01-31T18:36:09.993Z,3.00
2023-01-31T18:38:38.004Z,3.10
2023-01-31T18:41:07.544Z,3.10
2023-01-31T18:43:35.622Z,3.10
2023-01-31T18:46:05.948Z,3.10
2023-01-31T18:48:37.316Z,3.10
2023-01-31T18:51:07.780Z,3.10
2023-01-31T18:53:37.105Z,3.10
2023-01-31T18:56:06.756Z,3.10
2023-01-31T18:58:35.623Z,3.10
2023-01-31T19:01:10.317Z,3.10
2023-01-31T19:03:39.198Z,3.10
2023-01-31T19:06:08.831Z,3.10
2023-01-31T19:08:37.145Z,3.10
2023-01-31T19:11:07.133Z,3.10
2023-01-31T19:13:36.032Z,3.10
2023-01-31T19:16:05.953Z,3.10
2023-01-31T19:18:36.376Z,3.10
2023-01-31T19:21:04.775Z,3.10
2023-01-31T19:23:32.885Z,3.20
2023-01-31T19:26:02.903Z,3.20
2023-01-31T19:28:30.949Z,3.10
2023-01-31T19:31:04.321Z,3.10
2023-01-31T19:33:32.334Z,3.10
2023-01-31T19:36:08.639Z,3.10
2023-01-31T19:38:36.642Z,3.10
2023-01-31T19:41:08.495Z,3.10
2023-01-31T19:43:36.479Z,3.10
2023-01-31T19:46:05.310Z,3.10
2023-01-31T19:48:33.458Z,3.10
2023-01-31T19:51:07.721Z,3.10
2023-01-31T19:53:36.101Z,3.10
2023-01-31T19:56:04.960Z,3.10
2023-01-31T19:58:33.138Z,3.10
2023-01-31T20:01:03.322Z,3.00
2023-01-31T20:03:31.602Z,3.00
2023-01-31T20:06:04.597Z,3.00
2023-01-31T20:08:32.586Z,3.10
2023-01-31T20:11:00.673Z,3.10
2023-01-31T20:13:28.931Z,3.00
2023-01-31T20:16:00.406Z,3.00
2023-01-31T20:18:29.100Z,3.00
2023-01-31T20:20:57.083Z,3.00
2023-01-31T20:23:27.796Z,2.90
2023-01-31T20:25:56.042Z,2.90
2023-01-31T20:28:24.828Z,2.80
2023-01-31T20:30:53.044Z,2.70
2023-01-31T20:33:21.443Z,2.70
2023-01-31T20:35:49.404Z,2.70
2023-01-31T20:38:18.234Z,2.70
2023-01-31T20:40:52.710Z,2.70
2023-01-31T20:43:21.583Z,2.70
2023-01-31T20:45:50.023Z,2.70
2023-01-31T20:48:19.361Z,2.70
2023-01-31T20:50:55.389Z,2.70
2023-01-31T20:53:23.949Z,2.70
2023-01-31T20:56:01.364Z,2.70
2023-01-31T20:58:34.175Z,2.70
